Time;durP1;ratioP1;P1;durP2;ratioP2;P2;SDS_P1;SDS_P2;PMS_P1;PMS_P2;Temp;Humidity;BMP_temperature;BMP_pressure;BME280_temperature;BME280_humidity;BME280_pressure;Samples;Min_cycle;Max_cycle;Signal;HPM_P1;HPM_P2
2022/03/18 00:00:18;;;;;;;;;;;6.00;99.90;;;;;;5029349;28;20480;-70
2022/03/18 00:02:44;;;;;;;;;;;6.00;99.90;;;;;;5034651;28;19917;-70
2022/03/18 00:05:09;;;;;;;;;;;6.00;99.90;;;;;;5034889;28;19917;-70
2022/03/18 00:07:35;;;;;;;;;;;6.00;99.90;;;;;;5032401;28;20285;-70
2022/03/18 00:10:01;;;;;;;;;;;6.00;99.90;;;;;;5032279;28;19932;-70
2022/03/18 00:12:26;;;;;;;;;;;6.00;99.90;;;;;;5035231;28;19909;-70
2022/03/18 00:14:51;;;;;;;;;;;5.90;99.90;;;;;;5039914;28;20444;-70
2022/03/18 00:17:17;;;;;;;;;;;5.90;99.90;;;;;;5032125;28;20297;-69
2022/03/18 00:19:43;;;;;;;;;;;5.90;99.90;;;;;;5032359;28;20016;-71
2022/03/18 00:22:08;;;;;;;;;;;5.90;99.90;;;;;;5031904;28;19909;-70
2022/03/18 00:24:34;;;;;;;;;;;5.90;99.90;;;;;;5031847;28;20373;-70
2022/03/18 00:27:00;;;;;;;;;;;5.90;99.90;;;;;;5032125;28;20007;-69
2022/03/18 00:29:25;;;;;;;;;;;5.90;99.90;;;;;;5031895;28;19917;-69
2022/03/18 00:31:51;;;;;;;;;;;5.90;99.90;;;;;;5031843;28;19940;-70
2022/03/18 00:34:17;;;;;;;;;;;5.90;99.90;;;;;;5031754;28;19909;-70
2022/03/18 00:36:43;;;;;;;;;;;5.90;99.90;;;;;;5031861;28;19909;-70
2022/03/18 00:39:08;;;;;;;;;;;5.90;99.90;;;;;;5031857;28;19916;-70
2022/03/18 00:41:34;;;;;;;;;;;5.90;99.90;;;;;;5037466;28;20393;-69
2022/03/18 00:43:59;;;;;;;;;;;5.90;99.90;;;;;;5038425;28;19920;-70
2022/03/18 00:46:25;;;;;;;;;;;5.90;99.90;;;;;;5031811;28;19916;-70
2022/03/18 00:54:20;;;;;;;;;;;5.80;99.90;;;;;;5031630;28;20329;-70
2022/03/18 00:56:45;;;;;;;;;;;5.80;99.90;;;;;;5031687;28;19913;-70
2022/03/18 00:59:11;;;;;;;;;;;5.80;99.90;;;;;;5031880;28;20282;-70
2022/03/18 01:01:36;;;;;;;;;;;5.80;99.90;;;;;;5031595;28;19948;-70
2022/03/18 01:04:02;;;;;;;;;;;5.80;99.90;;;;;;5031533;28;19913;-70
2022/03/18 01:06:28;;;;;;;;;;;5.80;99.90;;;;;;5031820;28;20274;-71
2022/03/18 01:08:53;;;;;;;;;;;5.80;99.90;;;;;;5031685;28;20417;-70
2022/03/18 01:11:19;;;;;;;;;;;5.80;99.90;;;;;;5034917;28;19913;-70
2022/03/18 01:13:44;;;;;;;;;;;5.80;99.90;;;;;;5042666;28;19909;-68
2022/03/18 01:16:10;;;;;;;;;;;5.80;99.90;;;;;;5030231;28;20290;-70
2022/03/18 01:18:35;;;;;;;;;;;5.80;99.90;;;;;;5031748;28;19955;-70
2022/03/18 01:21:01;;;;;;;;;;;5.80;99.90;;;;;;5031498;28;19913;-70
2022/03/18 01:23:26;;;;;;;;;;;5.80;99.90;;;;;;5031300;28;19916;-70
2022/03/18 01:25:54;;;;;;;;;;;5.80;99.90;;;;;;5031353;28;19975;-70
2022/03/18 01:28:19;;;;;;;;;;;5.80;99.90;;;;;;5031578;28;19916;-70
2022/03/18 01:30:45;;;;;;;;;;;5.80;99.90;;;;;;5031253;28;19913;-70
2022/03/18 01:33:10;;;;;;;;;;;5.80;99.90;;;;;;5030934;28;19913;-70
2022/03/18 01:35:37;;;;;;;;;;;5.80;99.90;;;;;;5031655;28;20012;-70
2022/03/18 01:38:03;;;;;;;;;;;5.80;99.90;;;;;;5031520;28;20432;-70
2022/03/18 01:40:28;;;;;;;;;;;5.80;99.90;;;;;;5037155;28;19912;-70
2022/03/18 01:42:54;;;;;;;;;;;5.70;99.90;;;;;;5038031;28;19948;-70
2022/03/18 01:45:20;;;;;;;;;;;5.70;99.90;;;;;;5042493;28;19910;-70
2022/03/18 01:47:47;;;;;;;;;;;5.70;99.90;;;;;;5031234;28;19909;-70
2022/03/18 01:50:13;;;;;;;;;;;5.70;99.90;;;;;;5031621;28;19960;-70
2022/03/18 01:52:39;;;;;;;;;;;5.70;99.90;;;;;;5033473;28;19910;-70
2022/03/18 01:55:05;;;;;;;;;;;5.70;99.90;;;;;;5034694;28;20058;-70
2022/03/18 01:57:31;;;;;;;;;;;5.70;99.90;;;;;;5034810;28;19909;-70
2022/03/18 01:59:57;;;;;;;;;;;5.70;99.90;;;;;;5034834;28;19916;-70
2022/03/18 02:02:23;;;;;;;;;;;5.70;99.90;;;;;;5034729;28;20278;-70
2022/03/18 02:04:48;;;;;;;;;;;5.70;99.90;;;;;;5034609;28;19916;-70
2022/03/18 02:07:14;;;;;;;;;;;5.70;99.90;;;;;;5034675;28;20302;-69
2022/03/18 02:09:40;;;;;;;;;;;5.70;99.90;;;;;;5034285;28;19920;-70
2022/03/18 02:12:07;;;;;;;;;;;5.70;99.90;;;;;;5041438;28;20290;-70
2022/03/18 02:14:36;;;;;;;;;;;5.70;99.90;;;;;;5036116;28;20027;-70
2022/03/18 02:17:03;;;;;;;;;;;5.70;99.90;;;;;;5034419;28;19925;-70
2022/03/18 02:19:28;;;;;;;;;;;5.70;99.90;;;;;;5034586;28;19916;-70
2022/03/18 02:21:54;;;;;;;;;;;5.70;99.90;;;;;;5034490;28;19909;-70
2022/03/18 02:24:20;;;;;;;;;;;5.70;99.90;;;;;;5033975;28;19909;-69
2022/03/18 02:26:46;;;;;;;;;;;5.70;99.90;;;;;;5034549;28;20050;-70
2022/03/18 02:29:12;;;;;;;;;;;5.70;99.90;;;;;;5034239;28;19961;-70
2022/03/18 02:31:37;;;;;;;;;;;5.70;99.90;;;;;;5034189;28;19953;-70
2022/03/18 02:34:03;;;;;;;;;;;5.60;99.90;;;;;;5033958;28;20341;-69
2022/03/18 02:36:28;;;;;;;;;;;5.60;99.90;;;;;;5034567;28;20366;-70
2022/03/18 02:38:54;;;;;;;;;;;5.60;99.90;;;;;;5034073;28;19913;-69
2022/03/18 02:41:19;;;;;;;;;;;5.60;99.90;;;;;;5037208;28;19912;-70
2022/03/18 02:43:46;;;;;;;;;;;5.60;99.90;;;;;;5045554;28;19956;-70
2022/03/18 02:46:11;;;;;;;;;;;5.60;99.90;;;;;;5034222;28;20354;-70
2022/03/18 02:48:37;;;;;;;;;;;5.60;99.90;;;;;;5034016;28;20002;-69
2022/03/18 02:51:02;;;;;;;;;;;5.60;99.90;;;;;;5033833;28;19913;-69
2022/03/18 02:53:27;;;;;;;;;;;5.60;99.90;;;;;;5033522;28;19909;-70
2022/03/18 02:55:54;;;;;;;;;;;5.60;99.90;;;;;;5032524;28;19916;-70
2022/03/18 02:58:20;;;;;;;;;;;5.60;99.90;;;;;;5033674;28;19913;-70
2022/03/18 03:00:45;;;;;;;;;;;5.60;99.90;;;;;;5033768;28;19909;-70
2022/03/18 03:03:11;;;;;;;;;;;5.60;99.90;;;;;;5032658;28;19909;-70
2022/03/18 03:08:21;;;;;;;;;;;5.50;99.90;;;;;;5033713;28;19920;-70
2022/03/18 03:10:47;;;;;;;;;;;5.50;99.90;;;;;;5033604;28;19913;-70
2022/03/18 03:13:12;;;;;;;;;;;5.50;99.90;;;;;;5048134;28;19915;-70
2022/03/18 03:15:38;;;;;;;;;;;5.50;99.90;;;;;;5040350;28;19960;-69
2022/03/18 03:18:05;;;;;;;;;;;5.50;99.90;;;;;;5033351;28;19913;-70
2022/03/18 03:20:31;;;;;;;;;;;5.50;99.90;;;;;;5033238;28;19992;-70
2022/03/18 03:22:57;;;;;;;;;;;5.50;99.90;;;;;;5039201;28;20011;-70
2022/03/18 03:25:22;;;;;;;;;;;5.50;99.90;;;;;;5038544;28;19917;-70
2022/03/18 03:27:50;;;;;;;;;;;5.50;99.90;;;;;;5033252;28;19910;-70
2022/03/18 03:30:16;;;;;;;;;;;5.50;99.90;;;;;;5033026;28;19913;-69
2022/03/18 03:32:41;;;;;;;;;;;5.50;99.90;;;;;;5032969;28;19913;-69
2022/03/18 03:35:08;;;;;;;;;;;5.50;99.90;;;;;;5033196;28;19920;-70
2022/03/18 03:37:34;;;;;;;;;;;5.50;99.90;;;;;;5033149;28;19909;-70
2022/03/18 03:39:59;;;;;;;;;;;5.50;99.90;;;;;;5032998;28;19909;-70
2022/03/18 03:42:25;;;;;;;;;;;5.50;99.90;;;;;;5041001;28;19969;-70
2022/03/18 03:44:51;;;;;;;;;;;5.50;99.90;;;;;;5040088;28;19909;-70
2022/03/18 03:47:16;;;;;;;;;;;5.40;99.90;;;;;;5031589;28;19917;-70
2022/03/18 03:49:42;;;;;;;;;;;5.40;99.90;;;;;;5032550;28;19917;-70
2022/03/18 03:52:10;;;;;;;;;;;5.40;99.90;;;;;;5032953;28;19909;-70
2022/03/18 03:54:37;;;;;;;;;;;5.40;99.90;;;;;;5045348;28;20372;-70
2022/03/18 03:57:03;;;;;;;;;;;5.40;99.90;;;;;;5051910;28;20327;-70
2022/03/18 03:59:28;;;;;;;;;;;5.40;99.90;;;;;;5051618;28;19916;-69
2022/03/18 04:01:54;;;;;;;;;;;5.40;99.90;;;;;;5051534;28;19909;-70
2022/03/18 04:04:19;;;;;;;;;;;5.40;99.90;;;;;;5051858;28;19916;-70
2022/03/18 04:06:45;;;;;;;;;;;5.40;99.90;;;;;;5051601;28;20369;-70
2022/03/18 04:09:10;;;;;;;;;;;5.40;99.90;;;;;;5051295;28;19958;-70
2022/03/18 04:11:36;;;;;;;;;;;5.40;99.90;;;;;;5047119;28;19934;-70
2022/03/18 04:14:02;;;;;;;;;;;5.40;99.90;;;;;;5039792;28;20389;-70
2022/03/18 04:16:27;;;;;;;;;;;5.40;99.90;;;;;;5032840;28;19920;-70
2022/03/18 04:18:53;;;;;;;;;;;5.40;99.90;;;;;;5032156;28;20007;-70
2022/03/18 04:21:18;;;;;;;;;;;5.30;99.90;;;;;;5032333;28;19909;-70
2022/03/18 04:23:44;;;;;;;;;;;5.30;99.90;;;;;;5032146;28;20311;-70
2022/03/18 04:26:09;;;;;;;;;;;5.30;99.90;;;;;;5032159;28;19952;-70
2022/03/18 04:28:34;;;;;;;;;;;5.30;99.90;;;;;;5032056;28;20362;-70
2022/03/18 04:31:00;;;;;;;;;;;5.30;99.90;;;;;;5032137;28;19939;-70
2022/03/18 04:33:26;;;;;;;;;;;5.30;99.90;;;;;;5031333;28;19913;-69
2022/03/18 04:35:51;;;;;;;;;;;5.30;99.90;;;;;;5032227;28;20494;-70
2022/03/18 04:38:17;;;;;;;;;;;5.30;99.90;;;;;;5031715;28;20359;-70
2022/03/18 04:40:42;;;;;;;;;;;5.30;99.90;;;;;;5037901;28;19948;-70
2022/03/18 04:43:08;;;;;;;;;;;5.30;99.90;;;;;;5033518;28;19910;-70
2022/03/18 04:45:33;;;;;;;;;;;5.30;99.90;;;;;;5032012;28;19915;-69
2022/03/18 04:47:59;;;;;;;;;;;5.30;99.90;;;;;;5031840;28;19909;-70
2022/03/18 04:50:25;;;;;;;;;;;5.30;99.90;;;;;;5031774;28;19971;-70
2022/03/18 04:52:50;;;;;;;;;;;5.30;99.90;;;;;;5031924;28;19909;-70
2022/03/18 04:55:16;;;;;;;;;;;5.30;99.90;;;;;;5031800;28;19916;-70
2022/03/18 04:57:41;;;;;;;;;;;5.30;99.90;;;;;;5031836;28;19936;-70
2022/03/18 05:00:07;;;;;;;;;;;5.30;99.90;;;;;;5032249;28;19909;-70
2022/03/18 05:02:35;;;;;;;;;;;5.30;99.90;;;;;;5031810;28;20369;-70
2022/03/18 05:05:00;;;;;;;;;;;5.30;99.90;;;;;;5051053;28;19916;-70
2022/03/18 05:07:26;;;;;;;;;;;5.20;99.90;;;;;;5051060;28;19912;-70
2022/03/18 05:09:51;;;;;;;;;;;5.20;99.90;;;;;;5044989;28;20019;-70
2022/03/18 05:12:17;;;;;;;;;;;5.20;99.90;;;;;;5043190;28;20282;-70
2022/03/18 05:14:43;;;;;;;;;;;5.20;99.90;;;;;;5032521;28;19945;-70
2022/03/18 05:17:09;;;;;;;;;;;5.20;99.90;;;;;;5031593;28;19946;-70
2022/03/18 05:19:36;;;;;;;;;;;5.20;99.90;;;;;;5037068;28;19909;-70
2022/03/18 05:22:01;;;;;;;;;;;5.20;99.90;;;;;;5031704;28;20300;-70
2022/03/18 05:24:27;;;;;;;;;;;5.20;99.90;;;;;;5031586;28;19910;-70
2022/03/18 05:26:53;;;;;;;;;;;5.20;99.90;;;;;;5032830;28;19909;-70
2022/03/18 05:29:19;;;;;;;;;;;5.20;99.90;;;;;;5035217;28;19913;-70
2022/03/18 05:31:46;;;;;;;;;;;5.20;99.90;;;;;;5035227;28;19917;-70
2022/03/18 05:34:12;;;;;;;;;;;5.20;99.90;;;;;;5035506;28;19931;-70
2022/03/18 05:36:38;;;;;;;;;;;5.20;99.90;;;;;;5035720;28;19941;-70
2022/03/18 05:39:04;;;;;;;;;;;5.20;99.90;;;;;;5035256;28;19944;-70
2022/03/18 05:41:29;;;;;;;;;;;5.20;99.90;;;;;;5037858;28;19916;-70
2022/03/18 05:43:55;;;;;;;;;;;5.20;99.90;;;;;;5044483;28;20338;-70
2022/03/18 05:46:20;;;;;;;;;;;5.20;99.90;;;;;;5035623;28;19994;-69
2022/03/18 05:48:46;;;;;;;;;;;5.20;99.90;;;;;;5035199;28;20417;-69
2022/03/18 05:51:12;;;;;;;;;;;5.20;99.90;;;;;;5035223;28;20308;-69
2022/03/18 05:53:38;;;;;;;;;;;5.20;99.90;;;;;;5034791;28;19913;-69
2022/03/18 05:58:48;;;;;;;;;;;5.20;99.90;;;;;;5034890;28;19963;-69
2022/03/18 06:01:14;;;;;;;;;;;5.20;99.90;;;;;;5034806;28;20039;-69
2022/03/18 06:03:40;;;;;;;;;;;5.20;99.90;;;;;;5034603;28;20405;-69
2022/03/18 06:06:06;;;;;;;;;;;5.20;99.90;;;;;;5034862;28;19909;-69
2022/03/18 06:14:18;;;;;;;;;;;5.30;99.90;;;;;;5032397;28;19909;-69
2022/03/18 06:16:44;;;;;;;;;;;5.20;99.90;;;;;;5033833;28;19983;-69
2022/03/18 06:19:10;;;;;;;;;;;5.30;99.90;;;;;;5034539;28;19909;-69
2022/03/18 06:21:35;;;;;;;;;;;5.30;99.90;;;;;;5034170;28;19983;-69
2022/03/18 06:24:01;;;;;;;;;;;5.30;99.90;;;;;;5034146;28;19971;-69
2022/03/18 06:26:26;;;;;;;;;;;5.30;99.90;;;;;;5034217;28;19941;-69
2022/03/18 06:28:52;;;;;;;;;;;5.30;99.90;;;;;;5033965;28;19913;-72
2022/03/18 06:31:17;;;;;;;;;;;5.30;99.90;;;;;;5036412;28;19913;-69
2022/03/18 06:33:46;;;;;;;;;;;5.30;99.90;;;;;;5033889;28;20027;-69
2022/03/18 06:36:12;;;;;;;;;;;5.40;99.90;;;;;;5034009;28;19916;-69
2022/03/18 06:38:38;;;;;;;;;;;5.40;99.90;;;;;;5032742;28;19913;-69
2022/03/18 06:41:03;;;;;;;;;;;5.40;99.90;;;;;;5039399;28;19936;-69
2022/03/18 06:43:29;;;;;;;;;;;5.50;99.90;;;;;;5046043;28;19952;-69
2022/03/18 06:45:55;;;;;;;;;;;5.50;99.90;;;;;;5033799;28;19944;-69
2022/03/18 06:48:21;;;;;;;;;;;5.50;99.90;;;;;;5033798;28;19909;-69
2022/03/18 06:50:46;;;;;;;;;;;5.50;99.90;;;;;;5032073;28;20443;-69
2022/03/18 06:53:12;;;;;;;;;;;5.50;99.90;;;;;;5039011;28;19916;-69
2022/03/18 06:55:37;;;;;;;;;;;5.60;99.90;;;;;;5037138;28;19909;-69
2022/03/18 06:58:02;;;;;;;;;;;5.60;99.90;;;;;;5039215;28;19971;-69
2022/03/18 07:00:28;;;;;;;;;;;5.60;99.90;;;;;;5043987;28;19953;-69
2022/03/18 07:02:53;;;;;;;;;;;5.70;99.90;;;;;;5052228;28;19909;-69
2022/03/18 07:05:19;;;;;;;;;;;5.70;99.90;;;;;;5051812;28;19963;-69
2022/03/18 07:07:44;;;;;;;;;;;5.70;99.90;;;;;;5052134;28;19996;-69
2022/03/18 07:10:12;;;;;;;;;;;5.70;99.90;;;;;;5046737;28;19913;-69
2022/03/18 07:12:38;;;;;;;;;;;5.80;99.90;;;;;;5039107;28;20007;-69
2022/03/18 07:15:04;;;;;;;;;;;5.80;99.90;;;;;;5033516;28;19995;-70
2022/03/18 07:20:14;;;;;;;;;;;5.90;99.90;;;;;;5051993;28;19920;-70
2022/03/18 07:22:40;;;;;;;;;;;6.00;99.90;;;;;;5051768;28;20282;-70
2022/03/18 07:25:05;;;;;;;;;;;6.00;99.90;;;;;;5051854;28;19908;-70
2022/03/18 07:27:31;;;;;;;;;;;6.00;99.90;;;;;;5052004;28;19916;-70
2022/03/18 07:29:57;;;;;;;;;;;6.00;99.90;;;;;;5051776;28;19917;-70
2022/03/18 07:32:23;;;;;;;;;;;6.00;99.90;;;;;;5051564;28;19913;-70
2022/03/18 07:34:48;;;;;;;;;;;6.00;99.90;;;;;;5051526;28;19913;-70
2022/03/18 07:37:14;;;;;;;;;;;6.00;99.90;;;;;;5051843;28;19916;-71
2022/03/18 07:39:39;;;;;;;;;;;6.10;99.90;;;;;;5038796;28;20354;-69
2022/03/18 07:42:05;;;;;;;;;;;6.00;99.90;;;;;;5046315;28;19913;-70
2022/03/18 07:44:31;;;;;;;;;;;6.20;99.90;;;;;;5033363;28;19971;-70
2022/03/18 07:46:56;;;;;;;;;;;6.20;99.90;;;;;;5032280;28;19909;-70
2022/03/18 07:49:22;;;;;;;;;;;6.30;99.90;;;;;;5031985;28;19948;-70
2022/03/18 07:51:47;;;;;;;;;;;6.50;99.90;;;;;;5032051;28;19987;-70
2022/03/18 07:54:13;;;;;;;;;;;6.60;99.90;;;;;;5032118;28;19916;-70
2022/03/18 07:56:38;;;;;;;;;;;6.60;99.90;;;;;;5032377;28;19909;-69
2022/03/18 07:59:04;;;;;;;;;;;6.80;99.90;;;;;;5032576;28;20294;-70
2022/03/18 08:01:29;;;;;;;;;;;6.80;99.90;;;;;;5031868;28;19909;-70
2022/03/18 08:03:55;;;;;;;;;;;7.00;99.90;;;;;;5031776;28;19987;-69
2022/03/18 08:06:21;;;;;;;;;;;7.10;99.90;;;;;;5032042;28;20000;-70
2022/03/18 08:08:46;;;;;;;;;;;6.90;99.90;;;;;;5032038;28;19913;-70
2022/03/18 08:11:13;;;;;;;;;;;6.80;99.90;;;;;;5039060;28;20289;-70
2022/03/18 08:13:38;;;;;;;;;;;6.70;99.90;;;;;;5044050;28;20163;-70
2022/03/18 08:16:04;;;;;;;;;;;6.70;99.90;;;;;;5027646;28;19917;-70
2022/03/18 08:18:30;;;;;;;;;;;6.70;99.90;;;;;;5025605;28;20381;-69
2022/03/18 08:20:56;;;;;;;;;;;6.60;99.90;;;;;;5032592;28;19917;-70
2022/03/18 08:23:23;;;;;;;;;;;6.60;99.90;;;;;;5028977;28;20004;-70
2022/03/18 08:25:48;;;;;;;;;;;6.50;99.90;;;;;;5030342;28;19956;-70
2022/03/18 08:28:14;;;;;;;;;;;6.60;99.90;;;;;;5027295;28;20256;-70
2022/03/18 08:30:40;;;;;;;;;;;6.60;99.90;;;;;;5025557;28;19913;-69
2022/03/18 08:33:05;;;;;;;;;;;6.60;99.90;;;;;;5028697;28;19913;-69
2022/03/18 08:35:31;;;;;;;;;;;6.50;99.90;;;;;;5025005;28;20212;-69
2022/03/18 08:37:57;;;;;;;;;;;6.60;99.90;;;;;;5028766;28;20008;-69
2022/03/18 08:40:26;;;;;;;;;;;6.70;99.90;;;;;;5025248;28;19944;-69
2022/03/18 08:42:52;;;;;;;;;;;6.80;99.90;;;;;;5035043;28;19913;-69
2022/03/18 08:45:18;;;;;;;;;;;6.90;99.90;;;;;;5026596;28;19913;-70
2022/03/18 08:47:44;;;;;;;;;;;7.10;99.90;;;;;;5024703;28;20039;-69
2022/03/18 08:50:10;;;;;;;;;;;7.30;99.90;;;;;;5043890;28;19920;-70
2022/03/18 08:52:36;;;;;;;;;;;7.40;99.90;;;;;;5044049;28;19908;-70
2022/03/18 08:55:02;;;;;;;;;;;7.40;99.90;;;;;;5048300;28;19996;-70
2022/03/18 08:57:28;;;;;;;;;;;7.40;99.90;;;;;;5045588;28;20036;-70
2022/03/18 08:59:55;;;;;;;;;;;7.40;99.90;;;;;;5044229;28;19915;-69
2022/03/18 09:02:21;;;;;;;;;;;7.50;99.90;;;;;;5049535;28;20019;-70
2022/03/18 09:04:48;;;;;;;;;;;7.60;99.90;;;;;;5048811;28;20326;-70
2022/03/18 09:07:14;;;;;;;;;;;7.60;99.90;;;;;;5048595;28;19962;-69
2022/03/18 09:09:40;;;;;;;;;;;7.70;99.90;;;;;;5043689;28;20223;-69
2022/03/18 09:12:05;;;;;;;;;;;7.90;99.90;;;;;;5043302;28;20394;-70
2022/03/18 09:14:31;;;;;;;;;;;7.90;99.90;;;;;;5032176;28;20085;-69
2022/03/18 09:16:56;;;;;;;;;;;7.90;99.90;;;;;;5032095;28;19917;-69
2022/03/18 09:19:23;;;;;;;;;;;7.80;99.90;;;;;;5029541;28;20158;-70
2022/03/18 09:21:49;;;;;;;;;;;7.90;99.90;;;;;;5028190;28;19909;-70
2022/03/18 09:24:14;;;;;;;;;;;7.90;99.90;;;;;;5027617;28;19916;-69
2022/03/18 09:26:40;;;;;;;;;;;8.10;99.90;;;;;;5027849;28;20413;-70
2022/03/18 09:29:06;;;;;;;;;;;8.40;99.90;;;;;;5027455;28;20285;-70
2022/03/18 09:31:32;;;;;;;;;;;8.30;99.90;;;;;;5032220;28;20268;-70
2022/03/18 09:33:58;;;;;;;;;;;8.30;99.90;;;;;;5034604;28;19971;-70
2022/03/18 09:36:23;;;;;;;;;;;8.20;99.90;;;;;;5034878;28;19913;-70
2022/03/18 09:38:49;;;;;;;;;;;8.30;99.90;;;;;;5034867;28;19960;-70
2022/03/18 09:41:16;;;;;;;;;;;8.10;99.90;;;;;;5042915;28;19963;-70
2022/03/18 09:43:42;;;;;;;;;;;8.00;99.90;;;;;;5042386;28;19909;-70
2022/03/18 09:46:09;;;;;;;;;;;8.20;99.90;;;;;;5034690;28;20333;-70
2022/03/18 09:48:34;;;;;;;;;;;8.40;99.90;;;;;;5034815;28;20313;-70
2022/03/18 09:51:00;;;;;;;;;;;8.60;99.90;;;;;;5034607;28;20016;-69
2022/03/18 09:53:26;;;;;;;;;;;8.20;99.90;;;;;;5034129;28;19961;-70
2022/03/18 09:55:52;;;;;;;;;;;8.00;99.90;;;;;;5034642;28;19910;-69
2022/03/18 09:58:21;;;;;;;;;;;7.90;99.90;;;;;;5034260;28;20340;-70
2022/03/18 10:00:47;;;;;;;;;;;8.00;99.90;;;;;;5034432;28;20030;-70
2022/03/18 10:03:16;;;;;;;;;;;8.20;99.90;;;;;;5036346;28;19992;-70
2022/03/18 10:05:53;;;;;;;;;;;8.50;99.90;;;;;;5053358;28;19909;-70
2022/03/18 10:08:21;;;;;;;;;;;8.70;99.90;;;;;;5053395;28;19913;-70
2022/03/18 10:10:47;;;;;;;;;;;8.40;99.90;;;;;;5043152;28;19948;-70
2022/03/18 10:13:15;;;;;;;;;;;8.30;99.90;;;;;;5043993;28;19920;-70
2022/03/18 10:15:40;;;;;;;;;;;8.60;99.90;;;;;;5053122;28;19913;-70
2022/03/18 10:18:09;;;;;;;;;;;9.10;99.90;;;;;;5053135;28;19913;-70
2022/03/18 10:20:35;;;;;;;;;;;9.00;99.90;;;;;;5048945;28;19912;-70
2022/03/18 10:23:05;;;;;;;;;;;9.60;99.90;;;;;;5033173;28;20807;-70
2022/03/18 10:25:37;;;;;;;;;;;9.60;99.90;;;;;;5033657;28;19990;-70
2022/03/18 10:28:06;;;;;;;;;;;9.00;99.90;;;;;;5034046;28;19987;-71
2022/03/18 10:30:32;;;;;;;;;;;9.20;99.90;;;;;;5033700;28;19924;-70
2022/03/18 10:32:58;;;;;;;;;;;9.20;99.90;;;;;;5033497;28;19909;-70
2022/03/18 10:38:29;;;;;;;;;;;9.20;99.90;;;;;;5046719;28;19916;-71
2022/03/18 10:40:55;;;;;;;;;;;9.30;99.90;;;;;;5044335;28;20030;-70
2022/03/18 10:43:21;;;;;;;;;;;9.90;99.90;;;;;;5039412;28;19909;-71
2022/03/18 10:46:03;;;;;;;;;;;10.70;99.90;;;;;;5033512;28;19963;-70
2022/03/18 10:48:29;;;;;;;;;;;10.80;99.90;;;;;;5033312;28;19909;-71
2022/03/18 10:51:02;;;;;;;;;;;11.90;99.90;;;;;;5033377;28;19963;-71
2022/03/18 10:53:30;;;;;;;;;;;11.20;99.90;;;;;;5036624;28;19955;-71
2022/03/18 10:55:59;;;;;;;;;;;12.20;99.90;;;;;;5035614;28;19909;-71
2022/03/18 10:58:25;;;;;;;;;;;11.30;99.90;;;;;;5033352;28;19909;-70
2022/03/18 11:00:52;;;;;;;;;;;12.70;99.90;;;;;;5033095;28;19913;-70
2022/03/18 11:03:17;;;;;;;;;;;14.00;98.20;;;;;;5032679;28;20013;-71
2022/03/18 11:05:47;;;;;;;;;;;14.50;96.90;;;;;;5033094;28;19996;-71
2022/03/18 11:08:14;;;;;;;;;;;14.60;94.80;;;;;;5033242;28;19913;-70
2022/03/18 11:13:33;;;;;;;;;;;13.50;94.70;;;;;;5039421;28;19963;-71
2022/03/18 11:15:59;;;;;;;;;;;12.70;96.40;;;;;;5032884;28;20244;-71
2022/03/18 11:18:28;;;;;;;;;;;12.40;97.80;;;;;;5032860;28;20364;-71
2022/03/18 11:20:56;;;;;;;;;;;13.30;95.50;;;;;;5032871;28;19916;-71
2022/03/18 11:23:22;;;;;;;;;;;12.30;95.20;;;;;;5032570;28;19909;-71
2022/03/18 11:25:54;;;;;;;;;;;11.20;97.60;;;;;;5032113;28;20282;-71
2022/03/18 11:28:20;;;;;;;;;;;10.90;98.70;;;;;;5032738;28;19946;-70
2022/03/18 11:30:49;;;;;;;;;;;11.50;99.10;;;;;;5032571;28;19919;-71
2022/03/18 11:33:15;;;;;;;;;;;12.90;97.20;;;;;;5032298;28;19909;-71
2022/03/18 11:35:49;;;;;;;;;;;12.20;95.70;;;;;;5032554;28;19932;-71
2022/03/18 11:38:15;;;;;;;;;;;11.10;97.60;;;;;;5032361;28;20273;-71
2022/03/18 11:40:54;;;;;;;;;;;11.40;97.10;;;;;;5038701;28;20362;-71
2022/03/18 11:43:32;;;;;;;;;;;13.40;95.30;;;;;;5034335;28;20331;-71
2022/03/18 11:46:12;;;;;;;;;;;13.50;93.80;;;;;;5032323;28;19917;-71
2022/03/18 11:48:41;;;;;;;;;;;12.10;94.80;;;;;;5032216;28;19910;-70
2022/03/18 11:51:32;;;;;;;;;;;11.60;97.00;;;;;;5051660;28;20027;-71
2022/03/18 11:53:59;;;;;;;;;;;11.80;95.60;;;;;;5049467;28;19908;-70
2022/03/18 11:56:45;;;;;;;;;;;11.60;97.00;;;;;;5051217;28;19996;-71
2022/03/18 11:59:25;;;;;;;;;;;12.10;96.20;;;;;;5050947;28;19915;-71
2022/03/18 12:01:51;;;;;;;;;;;11.90;94.60;;;;;;5051095;28;19909;-71
2022/03/18 12:04:38;;;;;;;;;;;11.50;96.40;;;;;;5050858;28;19913;-71
2022/03/18 12:07:13;;;;;;;;;;;11.50;96.70;;;;;;5051022;28;19915;-71
2022/03/18 12:09:46;;;;;;;;;;;11.20;97.00;;;;;;5046950;28;19913;-70
2022/03/18 12:12:15;;;;;;;;;;;11.50;96.20;;;;;;5044038;28;20007;-71
2022/03/18 12:14:41;;;;;;;;;;;12.10;96.80;;;;;;5034211;28;19909;-71
2022/03/18 12:17:07;;;;;;;;;;;11.70;96.40;;;;;;5031556;28;19924;-71
2022/03/18 12:19:36;;;;;;;;;;;11.50;97.30;;;;;;5031762;28;19913;-71
2022/03/18 12:22:02;;;;;;;;;;;11.50;97.30;;;;;;5031361;28;19953;-71
2022/03/18 12:24:32;;;;;;;;;;;11.50;98.00;;;;;;5031715;28;19917;-71
2022/03/18 12:27:00;;;;;;;;;;;11.30;97.40;;;;;;5039522;28;19909;-71
2022/03/18 12:29:26;;;;;;;;;;;11.30;97.90;;;;;;5031567;28;19909;-71
2022/03/18 12:32:05;;;;;;;;;;;11.60;98.00;;;;;;5031534;28;20098;-71
2022/03/18 12:34:31;;;;;;;;;;;11.30;97.50;;;;;;5031094;28;19916;-71
2022/03/18 12:36:56;;;;;;;;;;;11.30;97.60;;;;;;5030960;28;19910;-71
2022/03/18 12:39:25;;;;;;;;;;;11.50;97.20;;;;;;5031382;28;19968;-71
2022/03/18 12:41:50;;;;;;;;;;;11.20;96.90;;;;;;5037686;28;19909;-72
2022/03/18 12:44:31;;;;;;;;;;;11.20;97.90;;;;;;5036462;28;19909;-71
2022/03/18 12:46:58;;;;;;;;;;;11.10;97.80;;;;;;5045004;28;20353;-71
2022/03/18 12:49:31;;;;;;;;;;;11.10;97.40;;;;;;5050472;28;19909;-71
2022/03/18 12:51:57;;;;;;;;;;;10.80;97.80;;;;;;5050601;28;20285;-71
2022/03/18 12:54:22;;;;;;;;;;;10.90;98.40;;;;;;5050419;28;19913;-71
2022/03/18 12:56:48;;;;;;;;;;;10.70;97.90;;;;;;5050314;28;20268;-71
2022/03/18 12:59:15;;;;;;;;;;;10.80;97.80;;;;;;5050379;28;19924;-70
2022/03/18 13:01:50;;;;;;;;;;;10.70;98.60;;;;;;5050075;28;19988;-71
2022/03/18 13:04:17;;;;;;;;;;;10.70;98.60;;;;;;5050145;28;19909;-70
2022/03/18 13:06:42;;;;;;;;;;;10.60;99.30;;;;;;5050262;28;19936;-71
2022/03/18 13:09:09;;;;;;;;;;;10.80;98.40;;;;;;5050383;28;19909;-71
2022/03/18 13:11:35;;;;;;;;;;;11.10;97.80;;;;;;5037582;28;19913;-71
2022/03/18 13:14:01;;;;;;;;;;;11.10;97.60;;;;;;5040425;28;20003;-71
2022/03/18 13:16:35;;;;;;;;;;;11.10;97.50;;;;;;5030971;28;19963;-71
2022/03/18 13:19:02;;;;;;;;;;;11.10;97.30;;;;;;5031441;28;19908;-70
2022/03/18 13:21:28;;;;;;;;;;;11.00;97.50;;;;;;5031055;28;19917;-71
2022/03/18 13:23:55;;;;;;;;;;;11.60;97.20;;;;;;5031088;28;19909;-71
2022/03/18 13:26:20;;;;;;;;;;;11.70;96.90;;;;;;5031058;28;20393;-69
2022/03/18 13:28:50;;;;;;;;;;;12.10;97.00;;;;;;5030845;28;19959;-71
2022/03/18 13:34:00;;;;;;;;;;;11.40;97.00;;;;;;5031138;28;19917;-70
2022/03/18 13:36:30;;;;;;;;;;;11.60;96.40;;;;;;5031044;28;19909;-71
2022/03/18 13:38:57;;;;;;;;;;;11.70;95.90;;;;;;5030873;28;19909;-71
2022/03/18 13:41:23;;;;;;;;;;;11.50;95.30;;;;;;5045836;28;19913;-71
2022/03/18 13:43:53;;;;;;;;;;;11.50;94.60;;;;;;5036136;28;19916;-71
2022/03/18 13:46:20;;;;;;;;;;;11.60;95.00;;;;;;5048140;28;19909;-71
2022/03/18 13:48:46;;;;;;;;;;;11.40;95.00;;;;;;5052188;28;20019;-71
2022/03/18 13:51:28;;;;;;;;;;;11.20;95.20;;;;;;5053520;28;19913;-71
2022/03/18 13:54:13;;;;;;;;;;;11.30;95.50;;;;;;5053615;28;19924;-71
2022/03/18 13:56:42;;;;;;;;;;;11.40;96.10;;;;;;5053628;28;19944;-71
2022/03/18 13:59:16;;;;;;;;;;;11.90;96.10;;;;;;5053243;28;20385;-71
2022/03/18 14:02:00;;;;;;;;;;;11.50;94.70;;;;;;5053330;28;19909;-71
2022/03/18 14:04:46;;;;;;;;;;;11.30;94.90;;;;;;5053406;28;20226;-71
2022/03/18 14:07:12;;;;;;;;;;;11.30;95.10;;;;;;5053146;28;19988;-71
2022/03/18 14:09:51;;;;;;;;;;;11.50;95.10;;;;;;5049749;28;19913;-71
2022/03/18 14:12:17;;;;;;;;;;;11.30;95.10;;;;;;5037673;28;19909;-71
2022/03/18 14:14:43;;;;;;;;;;;11.20;95.30;;;;;;5037715;28;20340;-72
2022/03/18 14:17:10;;;;;;;;;;;11.00;94.80;;;;;;5034010;28;20331;-71
2022/03/18 14:19:48;;;;;;;;;;;11.00;95.20;;;;;;5033968;28;19909;-71
2022/03/18 14:22:32;;;;;;;;;;;11.20;95.80;;;;;;5033822;28;19916;-72
2022/03/18 14:24:58;;;;;;;;;;;11.30;95.70;;;;;;5033587;28;19956;-71
2022/03/18 14:27:24;;;;;;;;;;;11.30;95.80;;;;;;5033811;28;20021;-71
2022/03/18 14:29:49;;;;;;;;;;;11.10;94.50;;;;;;5037906;28;19936;-71
2022/03/18 14:32:15;;;;;;;;;;;10.90;94.40;;;;;;5052871;28;20369;-71
2022/03/18 14:34:41;;;;;;;;;;;11.10;94.80;;;;;;5052675;28;19909;-71
2022/03/18 14:37:07;;;;;;;;;;;11.20;95.60;;;;;;5052876;28;19909;-71
2022/03/18 14:39:32;;;;;;;;;;;11.30;96.00;;;;;;5049456;28;19920;-71
2022/03/18 14:41:58;;;;;;;;;;;11.30;95.90;;;;;;5043955;28;19909;-72
2022/03/18 14:44:23;;;;;;;;;;;11.20;94.40;;;;;;5034530;28;19917;-71
2022/03/18 14:46:49;;;;;;;;;;;11.30;94.10;;;;;;5033605;28;19909;-71
2022/03/18 14:49:14;;;;;;;;;;;11.40;93.90;;;;;;5033239;28;19909;-71
2022/03/18 14:51:40;;;;;;;;;;;11.30;93.70;;;;;;5033420;28;19915;-71